SeattleWeather.com

KSEA - Seattle/Metro, Washington, USA
Distance from station: SSW 24mi, 39km
Updated: Sat, 22-Jul-2017 2:53am PDT
Mostly Cloudy
Mostly Cloudy
 Wind from SSE
Wind: SSE 7 mph , 11 km/h
Temperature: 64°F , 18°C
Dew Point: 54°F , 12°C
Humidity: 68%
Barometer: 30.16 inHg , 1021.3 hPa
Clouds: Mostly Cloudy
Visibility: 10 miles , 16 km
Cloud details: Partly Cloudy 7000 ft
Mostly Cloudy 9000 ft
2017/07/22 09:53 KSEA 220953Z 16006KT 10SM SCT070 BKN090 18/12 A3016 RMK AO2 SLP216 T01830117
KBFI - Seattle/Boeing, Washington, USA
Distance from station: SSW 18mi, 29km
Updated: Sat, 22-Jul-2017 2:53am PDT
Overcast
Overcast
 Wind from SSE
Wind: SSE 8 mph , 13 km/h
Temperature: 66°F , 19°C
Dew Point: 54°F , 12°C
Humidity: 64%
Barometer: 30.14 inHg , 1020.7 hPa
Clouds: Overcast
Visibility: 10 miles , 16 km
Cloud details: Overcast 5500 ft
2017/07/22 09:53 KBFI 220953Z 16007KT 10SM OVC055 19/12 A3014 RMK AO2 SLP207 T01890122
NWS Forecast for 2 Miles WNW South Seattle WA
National Weather Service Forecast for: 2 Miles WNW South Seattle WA
Issued by: National Weather Service Seattle, WA
Updated: 3:20 pm PDT Jul 21, 2017
 
Overnight

Overnight: A 20 percent chance of rain.  Mostly cloudy, with a low around 61. South wind around 6 mph.
Slight Chance
Rain
Saturday

Saturday: Mostly cloudy, with a high near 79. Southwest wind 8 to 10 mph.
Mostly Cloudy
Saturday
Night
Saturday Night: Mostly cloudy, with a low around 60. North northeast wind 9 to 13 mph.
Mostly Cloudy
Sunday

Sunday: Mostly sunny, with a high near 77. North northwest wind 9 to 13 mph.
Mostly Sunny
Sunday
Night
Sunday Night: Clear, with a low around 58. North northeast wind 8 to 14 mph.
Clear
Monday

Monday: Sunny, with a high near 80.
Sunny
Monday
Night
Monday Night: Partly cloudy, with a low around 59.
Partly Cloudy
Tuesday

Tuesday: Mostly sunny, with a high near 80.
Mostly Sunny
Tuesday
Night
Tuesday Night: Mostly cloudy, with a low around 58.
Mostly Cloudy
Lo 61 °F Hi 79 °F Lo 60 °F Hi 77 °F Lo 58 °F Hi 80 °F Lo 59 °F Hi 80 °F Lo 58 °F

 

Overnight
 
A 20 percent chance of rain. Mostly cloudy, with a low around 61. South wind around 6 mph.
Saturday
 
Mostly cloudy, with a high near 79. Southwest wind 8 to 10 mph.
Saturday Night
 
Mostly cloudy, with a low around 60. North northeast wind 9 to 13 mph.
Sunday
 
Mostly sunny, with a high near 77. North northwest wind 9 to 13 mph.
Sunday Night
 
Clear, with a low around 58. North northeast wind 8 to 14 mph.
Monday
 
Sunny, with a high near 80.
Monday Night
 
Partly cloudy, with a low around 59.
Tuesday
 
Mostly sunny, with a high near 80.
Tuesday Night
 
Mostly cloudy, with a low around 58.
Wednesday
 
Partly sunny, with a high near 75.
Wednesday Night
 
Mostly cloudy, with a low around 58.
Thursday
 
Partly sunny, with a high near 76.
Thursday Night
 
Mostly cloudy, with a low around 57.
Friday
 
Mostly sunny, with a high near 77.